Crystal Symphony — C6MY5 — position and weather

sailwx.info

Track history (hours):
 
Tides and Currents Weather Stations Pressure Air Temp Water Temp Dewpoint Dewpoint Depression Visibility Wind Speed Wind Dir Waves Ship Positions

Crystal Symphony

Operator: Crystal Cruises

Last reported at 2018-Feb-22 10:50 UTC. Time now 2018-Feb-22 15:00 UTC.
Position S 46°39' E 169°43'.

Length 238 m; draft 8 m.

Type: Passenger vessel. MMSI: 309168000.

Date/timePositionNaut miles runAvg speedWind from/ knotsBaromVisibWave heightAir tempDewpointWater temp
2018-Feb-22 10:50S 46°39' E 169°43'411.5
2018-Feb-22 10:30S 46°40' E 169°38'510.2
2018-Feb-22 10:01S 46°42' E 169°31'510.6
2018-Feb-22 09:31S 46°44' E 169°24'510.8
2018-Feb-22 09:00S 46°45' E 169°16'510.9
2018-Feb-22 08:31S 46°47' E 169°08'510.7
2018-Feb-22 08:00S 46°48' E 169°01'610.8
2018-Feb-22 07:29S 46°50' E 168°53'510.9
2018-Feb-22 07:00S 46°51' E 168°46'510.9
2018-Feb-22 06:31S 46°52' E 168°38'511.0
2018-Feb-22 06:01S 46°54' E 168°30'611.2
2018-Feb-22 05:31S 46°54' E 168°22'611.9
2018-Feb-22 05:00S 46°54' E 168°13'2 4.7
2018-Feb-22 04:30S 46°53' E 168°10'0 0.0
2018-Feb-22 03:58S 46°53' E 168°10'0 0.0
2018-Feb-22 03:29S 46°53' E 168°10'0 0.0
2018-Feb-22 03:00S 46°53' E 168°10'0 0.2
2018-Feb-22 02:30S 46°53' E 168°10'0 0.1
2018-Feb-22 02:00S 46°53' E 168°10'0 0.0
2018-Feb-22 01:30S 46°53' E 168°10'0 0.0
2018-Feb-22 00:59S 46°53' E 168°10'0 0.0
2018-Feb-22 00:29S 46°53' E 168°10'0 0.1
2018-Feb-21 23:59S 46°53' E 168°10'0 0.0
2018-Feb-21 23:31S 46°53' E 168°10'0 0.1
2018-Feb-21 22:46S 46°53' E 168°10'0 0.1
2018-Feb-21 22:00S 46°53' E 168°10'0 0.1
2018-Feb-21 21:30S 46°53' E 168°10'0 0.0
2018-Feb-21 20:59S 46°53' E 168°10'0 0.0
2018-Feb-21 20:29S 46°53' E 168°10'0 0.1
2018-Feb-21 19:59S 46°53' E 168°10'0 0.0
2018-Feb-21 19:29S 46°53' E 168°10'0 0.0
2018-Feb-21 18:58S 46°53' E 168°10'0 0.0
2018-Feb-21 18:28S 46°53' E 168°10'2 3.5
2018-Feb-21 18:00S 46°52' E 168°12'5 9.1
2018-Feb-21 17:30S 46°48' E 168°07'510.1
2018-Feb-21 17:01S 46°44' E 168°03'510.5
2018-Feb-21 16:31S 46°40' E 167°58'611.0
2018-Feb-21 16:00S 46°37' E 167°51'510.7
2018-Feb-21 15:31S 46°36' E 167°44'510.7
2018-Feb-21 15:00S 46°34' E 167°37'510.7
2018-Feb-21 14:31S 46°32' E 167°29'611.3
2018-Feb-21 14:00S 46°30' E 167°22'611.3
2018-Feb-21 13:31S 46°28' E 167°14'611.3
2018-Feb-21 13:01S 46°26' E 167°06'611.7
2018-Feb-21 12:30S 46°24' E 166°58'611.3
2018-Feb-21 11:58S 46°22' E 166°50'35 7.0
2018-Feb-21 06:54S 45°59' E 166°11'3 7.9
2018-Feb-21 06:30S 45°56' E 166°12'  
2018-Feb-18 14:24S 35°17' E 153°24'818.5
2018-Feb-18 13:59S 35°12' E 153°16'6318.9
2018-Feb-18 10:39S 34°32' E 152°18'319.3
2018-Feb-18 10:30S 34°30' E 152°15'1418.9
2018-Feb-18 09:47S 34°21' E 152°03'618.9
2018-Feb-18 09:27S 34°17' E 151°57'919.0
2018-Feb-18 09:00S 34°11' E 151°49'919.1
2018-Feb-18 08:30S 34°05' E 151°40'1019.1
2018-Feb-18 08:00S 33°59' E 151°31'917.7
2018-Feb-18 07:30S 33°54' E 151°23'712.4
2018-Feb-18 06:58S 33°50' E 151°16'  
2018-Feb-14 19:49S 43°13' E 147°39'15614.5
2018-Feb-14 09:03S 40°37' E 147°51'117.8
2018-Feb-14 09:00S 40°37' E 147°50'917.5
2018-Feb-14 08:30S 40°39' E 147°38'917.8
2018-Feb-14 08:00S 40°41' E 147°27'918.2
2018-Feb-14 07:30S 40°44' E 147°16'918.6
2018-Feb-14 07:00S 40°46' E 147°04'1019.1
2018-Feb-14 06:30S 40°49' E 146°52'919.0
2018-Feb-14 06:00S 40°52' E 146°40'1019.1
2018-Feb-14 05:30S 40°55' E 146°28'1019.1
2018-Feb-14 05:00S 40°58' E 146°16'17 1.9
2018-Feb-13 20:16S 41°03' E 145°55'0 0.0
2018-Feb-13 20:00S 41°03' E 145°55'1 1.9
2018-Feb-13 19:30S 41°03' E 145°56'714.7
2018-Feb-13 19:01S 40°56' E 145°54'918.7
2018-Feb-13 18:31S 40°47' E 145°49'918.8
2018-Feb-13 18:01S 40°38' E 145°45'  
Track history (hours):
 
Tides and Currents Weather Stations Pressure Air Temp Water Temp Dewpoint Dewpoint Depression Visibility Wind Speed Wind Dir Waves Ship Positions

Crystal Symphony

Operator: Crystal Cruises

Last reported at 2018-Feb-22 10:50 UTC. Time now 2018-Feb-22 15:00 UTC.
Position S 46°39' E 169°43'.

Length 238 m; draft 8 m.

Type: Passenger vessel. MMSI: 309168000.

Date/timePositionNaut miles runAvg speedWind from/ knotsBaromVisibWave heightAir tempDewpointWater temp
2018-Feb-22 10:50S 46°39' E 169°43'411.5
2018-Feb-22 10:30S 46°40' E 169°38'510.2
2018-Feb-22 10:01S 46°42' E 169°31'510.6
2018-Feb-22 09:31S 46°44' E 169°24'510.8
2018-Feb-22 09:00S 46°45' E 169°16'510.9
2018-Feb-22 08:31S 46°47' E 169°08'510.7
2018-Feb-22 08:00S 46°48' E 169°01'610.8
2018-Feb-22 07:29S 46°50' E 168°53'510.9
2018-Feb-22 07:00S 46°51' E 168°46'510.9
2018-Feb-22 06:31S 46°52' E 168°38'511.0
2018-Feb-22 06:01S 46°54' E 168°30'611.2
2018-Feb-22 05:31S 46°54' E 168°22'611.9
2018-Feb-22 05:00S 46°54' E 168°13'2 4.7
2018-Feb-22 04:30S 46°53' E 168°10'0 0.0
2018-Feb-22 03:58S 46°53' E 168°10'0 0.0
2018-Feb-22 03:29S 46°53' E 168°10'0 0.0
2018-Feb-22 03:00S 46°53' E 168°10'0 0.2
2018-Feb-22 02:30S 46°53' E 168°10'0 0.1
2018-Feb-22 02:00S 46°53' E 168°10'0 0.0
2018-Feb-22 01:30S 46°53' E 168°10'0 0.0
2018-Feb-22 00:59S 46°53' E 168°10'0 0.0
2018-Feb-22 00:29S 46°53' E 168°10'0 0.1
2018-Feb-21 23:59S 46°53' E 168°10'0 0.0
2018-Feb-21 23:31S 46°53' E 168°10'0 0.1
2018-Feb-21 22:46S 46°53' E 168°10'0 0.1
2018-Feb-21 22:00S 46°53' E 168°10'0 0.1
2018-Feb-21 21:30S 46°53' E 168°10'0 0.0
2018-Feb-21 20:59S 46°53' E 168°10'0 0.0
2018-Feb-21 20:29S 46°53' E 168°10'0 0.1
2018-Feb-21 19:59S 46°53' E 168°10'0 0.0
2018-Feb-21 19:29S 46°53' E 168°10'0 0.0
2018-Feb-21 18:58S 46°53' E 168°10'0 0.0
2018-Feb-21 18:28S 46°53' E 168°10'2 3.5
2018-Feb-21 18:00S 46°52' E 168°12'5 9.1
2018-Feb-21 17:30S 46°48' E 168°07'510.1
2018-Feb-21 17:01S 46°44' E 168°03'510.5
2018-Feb-21 16:31S 46°40' E 167°58'611.0
2018-Feb-21 16:00S 46°37' E 167°51'510.7
2018-Feb-21 15:31S 46°36' E 167°44'510.7
2018-Feb-21 15:00S 46°34' E 167°37'510.7
2018-Feb-21 14:31S 46°32' E 167°29'611.3
2018-Feb-21 14:00S 46°30' E 167°22'611.3
2018-Feb-21 13:31S 46°28' E 167°14'611.3
2018-Feb-21 13:01S 46°26' E 167°06'611.7
2018-Feb-21 12:30S 46°24' E 166°58'611.3
2018-Feb-21 11:58S 46°22' E 166°50'35 7.0
2018-Feb-21 06:54S 45°59' E 166°11'3 7.9
2018-Feb-21 06:30S 45°56' E 166°12'  
2018-Feb-18 14:24S 35°17' E 153°24'818.5
2018-Feb-18 13:59S 35°12' E 153°16'6318.9
2018-Feb-18 10:39S 34°32' E 152°18'319.3
2018-Feb-18 10:30S 34°30' E 152°15'1418.9
2018-Feb-18 09:47S 34°21' E 152°03'618.9
2018-Feb-18 09:27S 34°17' E 151°57'919.0
2018-Feb-18 09:00S 34°11' E 151°49'919.1
2018-Feb-18 08:30S 34°05' E 151°40'1019.1
2018-Feb-18 08:00S 33°59' E 151°31'917.7
2018-Feb-18 07:30S 33°54' E 151°23'712.4
2018-Feb-18 06:58S 33°50' E 151°16'  
2018-Feb-14 19:49S 43°13' E 147°39'15614.5
2018-Feb-14 09:03S 40°37' E 147°51'117.8
2018-Feb-14 09:00S 40°37' E 147°50'917.5
2018-Feb-14 08:30S 40°39' E 147°38'917.8
2018-Feb-14 08:00S 40°41' E 147°27'918.2
2018-Feb-14 07:30S 40°44' E 147°16'918.6
2018-Feb-14 07:00S 40°46' E 147°04'1019.1
2018-Feb-14 06:30S 40°49' E 146°52'919.0
2018-Feb-14 06:00S 40°52' E 146°40'1019.1
2018-Feb-14 05:30S 40°55' E 146°28'1019.1
2018-Feb-14 05:00S 40°58' E 146°16'17 1.9
2018-Feb-13 20:16S 41°03' E 145°55'0 0.0
2018-Feb-13 20:00S 41°03' E 145°55'1 1.9
2018-Feb-13 19:30S 41°03' E 145°56'714.7
2018-Feb-13 19:01S 40°56' E 145°54'918.7
2018-Feb-13 18:31S 40°47' E 145°49'918.8
2018-Feb-13 18:01S 40°38' E 145°45'  

Dump ship's entire track history